Weather at Fundação Santa Casa de Misericórdia do Pará Helipad

Public forecast

Using degrees Celsius for public forecast. Weather courtesy of forecast.io.

Closest aviation weather report (METAR) to Fundação Santa Casa de Misericórdia do Pará Helipad

Closest report is Val de Cans/Júlio Cezar Ribeiro International Airport, 3.7 nm (6.8 km) N. Retrieved 2021/08/02 12:00 UTC (40 minutes ago):

SBBE 021200Z 10004KT CAVOK 28/22 Q1017

Closest aviation forecast (TAF) to Fundação Santa Casa de Misericórdia do Pará Helipad

Closest forecast is Val de Cans/Júlio Cezar Ribeiro International Airport, 3.7 nm (6.8 km) N. Retrieved 2021/08/02 12:00 UTC (40 minutes ago):

TAF SBBE 020900Z 0212/0312 12005KT 9999 BKN020 TX31/0217Z TN23/0309Z BECMG 0214/0216 14010KT SCT030 FEW045TCU PROB40 0218/0221 5000 SHRA BECMG 0221/0223 07005KT SCT030 BECMG 0306/0308 00000KT 7000 FEW015 RMK PGU